San Antonio, Valles Caldera, New Mexico Weather observations

Data are for 10 minute period ending at time listed.
 Day   Time   Solar   Ave.   Ave.  Ave.  Vector  Max.   Baro.   Total    
  of    of     Rad.   Air    Rel.  Wind   Wind   Wind  Press.  Precip.   
Year   Day            Temp.  Hum.  Speed  Dir.   Gust                    
2015   (MST)  Kw/m2    F      %     mph   deg.    mph    mb.     in.     
-------------------------------------------------------------------------
  27   16:20   0.27   52.2    49    8.7   278    13.1   396.5    0.00 
  27   16:30   0.11   48.9    56    8.9   283    13.7   396.2    0.00 
  27   16:40   0.11   46.1    61    7.5   278    14.3   396.2    0.00 
  27   16:50   0.13   45.2    62    5.3   263     8.4   396.2    0.00 
  27   17:00   0.09   45.5    62    4.4   265     7.2   396.2    0.00 
  27   17:10   0.05   45.7    61    5.9   264    12.5   396.2    0.00 
  27   17:20   0.03   43.9    64    6.2   266    10.8   396.2    0.00 
  27   17:30   0.01   42.4    66    4.2   278     7.2   395.9    0.00 
  27   17:40   0.00   40.9    67    4.3   297     7.2   395.9    0.00 
  27   17:50   0.00   40.4    67    1.2   289     3.0   395.9    0.00 
  27   18:00   0.00   39.5    70    1.4    12     3.0   395.9    0.00 
  27   18:10   0.00   38.8    71    1.9    38     3.0   395.9    0.00 
  27   18:20   0.00   37.6    72    3.5    42     4.8   395.9    0.00 
  27   18:30   0.00   36.4    73    3.7    34     4.8   395.9    0.00 
  27   18:40   0.00   35.6    75    3.5    34     5.4   395.9    0.00 
  27   18:50   0.00   35.3    75    3.8    39     4.8   395.9    0.00 
  27   19:00   0.00   34.7    76    4.0    24     6.0   395.9    0.00 
  27   19:10   0.00   34.4    77    4.3    24     6.0   395.9    0.00 
  27   19:20   0.00   33.9    78    3.7    26     4.8   395.9    0.00 
  27   19:30   0.00   33.7    77    2.1   350     4.2   395.9    0.00 
  27   19:40   0.00   32.8    80    2.7     5     4.2   395.9    0.00 
  27   19:50   0.00   32.5    80    1.2   349     3.0   396.2    0.00 
  27   20:00   0.00   31.9    82    0.6    95     1.8   396.2    0.00 
  27   20:10   0.00   32.2    82    1.5    28     3.0   396.2    0.00 
  27   20:20   0.00   31.9    82    2.2    28     3.6   396.2    0.00 
  27   20:30   0.00   31.6    82    2.5    37     4.8   396.2    0.00 
  27   20:40   0.00   30.3    83    1.3    72     3.0   396.2    0.00 
  27   20:50   0.00   30.0    85    1.2     1     3.6   396.5    0.00 
  27   21:00   0.00   29.7    86    1.3    49     3.0   396.5    0.00 
  27   21:10   0.00   29.5    87    1.4    23     3.0   396.5    0.00 
  27   21:20   0.00   29.4    86    2.2    12     4.2   396.5    0.00 
  27   21:30   0.00   28.9    86    2.4   323     4.2   396.5    0.00 
  27   21:40   0.00   27.5    88    1.7   321     4.8   396.5    0.00 
  27   21:50   0.00   26.9    90    1.3    46     3.0   396.9    0.00 
  27   22:00   0.00   27.7    91    1.0    27     2.4   397.2    0.00 
  27   22:10   0.00   27.1    90    0.9   312     2.4   397.2    0.00 
  27   22:20   0.00   26.9    91    1.4   351     3.0   397.2    0.00 
  27   22:30   0.00   26.7    92    1.4    17     3.0   397.2    0.00 
  27   22:40   0.00   26.3    92    1.1   303     3.0   397.2    0.00 
  27   22:50   0.00   25.6    92    1.5   101     3.6   397.2    0.00 
  27   23:00   0.00   26.0    93    0.7   348     1.8   397.6    0.00 
  27   23:10   0.00   25.7    93    0.1   122     1.2   397.2    0.00 
  27   23:20   0.00   25.8    93    1.3    71     3.0   397.6    0.00 
  27   23:30   0.00   25.5    93    1.6   319     2.4   397.2    0.00 
  27   23:40   0.00   24.9    93    0.8   309     1.8   397.2    0.00 
  27   23:50   0.00   25.2    94    2.2   133     3.6   397.6    0.00 
  28    0:00   0.00   24.7    93    0.7   302     2.4   397.6    0.00 
  28    0:10   0.00   24.6    94    0.6    30     1.8   397.6    0.00 
  28    0:20   0.00   25.0    94    0.5    26     1.8   397.6    0.00 
  28    0:30   0.00   24.8    94    1.5   311     3.6   397.6    0.00 
  28    0:40   0.00   24.0    93    0.3   219     1.8   397.2    0.00 
  28    0:50   0.00   24.3    94    0.9    88     2.4   397.6    0.00 
  28    1:00   0.00   24.9    94    1.5    88     2.4   397.6    0.00 
  28    1:10   0.00   24.9    94    0.7    32     2.4   397.6    0.00 
  28    1:20   0.00   24.7    94    1.0   284     2.4   397.6    0.00 
  28    1:30   0.00   24.2    94    0.4   298     1.8   397.6    0.00 
  28    1:40   0.00   23.7    93    0.8   287     2.4   397.6    0.00 
  28    1:50   0.00   23.4    94    0.1   330     1.2   397.6    0.00 
  28    2:00   0.00   23.3    94    1.0   292     2.4   397.6    0.00 
  28    2:10   0.00   23.2    94    1.4   199     4.2   397.6    0.00 
  28    2:20   0.00   22.7    94    1.0   135     2.4   397.6    0.00 
  28    2:30   0.00   22.8    94    0.4   314     1.8   397.6    0.00 
  28    2:40   0.00   23.0    94    0.5   163     2.4   397.6    0.00 
  28    2:50   0.00   23.4    95    0.3    70     1.8   397.6    0.00 
  28    3:00   0.00   23.4    94    1.5   337     4.2   397.6    0.00 
  28    3:10   0.00   24.4    95    2.1   313     4.2   397.6    0.00 
  28    3:20   0.00   24.2    94    1.7   319     3.0   397.6    0.00 
  28    3:30   0.00   25.6    95    2.4   323     3.6   397.6    0.00 
  28    3:40   0.00   25.6    94    2.5     3     4.2   397.6    0.00 
  28    3:50   0.00   26.9    93    2.2   264     4.8   397.6    0.00 
  28    4:00   0.00   26.3    93    1.9    43     3.0   397.2    0.00 
  28    4:10   0.00   27.5    94    1.7   324     3.6   397.6    0.00 
  28    4:20   0.00   27.6    93    2.1   324     4.2   397.6    0.00 
  28    4:30   0.00   29.0    94    2.1   341     4.2   397.6    0.00 
  28    4:40   0.00   28.9    92    1.8   322     3.0   397.2    0.00 
  28    4:50   0.00   29.4    93    1.9   347     4.2   397.2    0.00 
  28    5:00   0.00   30.4    93    2.2   310     4.8   397.6    0.00 
  28    5:10   0.00   30.6    92    2.1   333     3.6   397.2    0.00 
  28    5:20   0.00   32.1    89    5.7   309    11.9   397.2    0.00 
  28    5:30   0.00   33.8    80    5.8   311    14.3   396.2    0.00 
  28    5:40   0.00   34.6    75    6.3   306    10.8   395.9    0.00 
  28    5:50   0.00   34.3    74    5.6   307     9.6   395.5    0.00 
  28    6:00   0.00   33.8    74    3.2   347     7.2   395.5    0.00 
  28    6:10   0.00   33.4    74    3.3   345     7.8   395.5    0.00 
  28    6:20   0.00   33.1    73    3.5    14     5.4   395.5    0.00 
  28    6:30   0.00   31.8    76    3.4    25     4.8   395.5    0.00 
  28    6:40   0.00   30.9    78    2.8    27     4.2   395.5    0.00 
  28    6:50   0.00   30.6    80    1.5    17     3.6   395.9    0.00 
  28    7:00   0.00   30.3    80    2.5    10     4.8   395.9    0.00 
  28    7:10   0.00   29.5    82    2.1    56     4.2   396.2    0.00 
  28    7:20   0.00   29.0    82    2.0    72     3.0   396.2    0.00 
  28    7:30   0.01   28.6    83    3.0    40     4.2   396.2    0.00 
  28    7:40   0.01   28.5    83    2.7    48     4.2   396.2    0.00 
  28    7:50   0.02   28.4    84    3.0    44     4.8   396.2    0.00 
  28    8:00   0.14   30.1    80    3.2    35     4.8   396.2    0.00 
  28    8:10   0.18   31.9    75    3.9    41     5.4   395.9    0.00 
  28    8:20   0.21   32.8    74    3.8    30     5.4   395.5    0.00 
  28    8:30   0.22   37.1    66    2.7    13     4.8   395.5    0.00 
  28    8:40   0.24   40.5    58    2.1     7     3.6   395.5    0.00 
  28    8:50   0.27   42.9    53    3.6   301     5.4   395.5    0.00 
  28    9:00   0.30   43.8    53    4.9   295     6.6   395.9    0.00 
  28    9:10   0.33   44.7    50    5.5   284     7.8   395.9    0.00 
  28    9:20   0.36   45.6    47    4.5   274     7.2   395.5    0.00 
  28    9:30   0.39   43.2    51    5.1   247    10.2   395.5    0.00 
  28    9:40   0.41   42.7    50    5.6   248     9.6   395.9    0.00 
  28    9:50   0.44   43.1    50    6.2   246    11.3   395.9    0.00 
  28   10:00   0.46   43.1    49    7.2   249    11.3   395.9    0.00 
  28   10:10   0.48   43.2    48    7.1   245    10.2   395.9    0.00 
  28   10:20   0.50   43.7    47    7.4   245    10.8   395.9    0.00 
  28   10:30   0.52   43.7    47    8.0   243    11.9   395.9    0.00 
  28   10:40   0.54   44.5    46    8.6   245    15.5   396.2    0.00 
  28   10:50   0.56   45.9    40    6.7   268    10.8   395.9    0.00 
  28   11:00   0.56   48.1    34    8.0   310    13.7   395.9    0.00 
  28   11:10   0.54   49.1    33    6.2   305    13.7   395.9    0.00 
  28   11:20   0.58   49.2    33    7.1   312    11.9   395.9    0.00 
  28   11:30   0.58   49.2    33    5.4   311    13.1   395.9    0.00 
  28   11:40   0.60   50.0    33    5.7   292    14.9   396.2    0.00 
  28   11:50   0.61   49.8    33    6.1   289    11.9   396.2    0.00 
  28   12:00   0.60   50.6    32    4.2   329     8.4   396.2    0.00 
  28   12:10   0.61   49.7    34    5.8   268    10.8   396.2    0.00 
  28   12:20   0.59   49.9    32    5.5   284    14.3   395.9    0.00 
  28   12:30   0.60   51.4    31    6.3   307    11.9   396.2    0.00 
  28   12:40   0.60   51.7    30    5.5   315    13.7   396.2    0.00 
  28   12:50   0.58   51.9    31    6.7   296    14.3   396.2    0.00 
  28   13:00   0.58   51.1    32    7.8   295    14.9   396.2    0.00 
  28   13:10   0.56   50.5    34    6.6   292    13.7   396.2    0.00 
  28   13:20   0.56   49.9    34    7.3   320    13.7   396.2    0.00 
  28   13:30   0.58   50.8    33    7.4   294    13.1   396.2    0.00 
  28   13:40   0.52   50.5    32    6.6   301    13.7   395.9    0.00 
  28   13:50   0.52   50.6    32    7.6   305    12.5   396.2    0.00 
  28   14:00   0.50   50.4    31    6.4   308    12.5   396.2    0.00 
  28   14:10   0.50   51.1    30    7.0   303    13.7   396.2    0.00 
  28   14:20   0.43   50.4    31    6.1   305    11.3   395.9    0.00 
  28   14:30   0.40   50.0    31    6.4   310    11.9   395.9    0.00 
  28   14:40   0.46   50.2    32    5.9   326    14.3   396.2    0.00 
  28   14:50   0.47   51.4    31    6.2   322    11.3   395.9    0.00 
  28   15:00   0.41   52.8    29    7.3   293    13.1   395.9    0.00 
  28   15:10   0.42   51.9    29    6.8   308    13.7   395.9    0.00 
  28   15:20   0.36   52.1    31    6.9   299    11.3   395.9    0.00 
  28   15:30   0.34   51.0    31    6.7   313    12.5   395.9    0.00 
  28   15:40   0.31   50.6    30    7.1   306    12.5   395.9    0.00 
  28   15:50   0.28   50.3    32    7.6   317    12.5   395.9    0.00 
  28   16:00   0.28   50.5    32    6.8   316    11.3   395.9    0.00 
  28   16:10   0.25   50.3    34    7.9   302    13.7   395.9    0.00 

Return to San Antonio, Valles Caldera graphs page.


Western Regional Climate Center,wrcc@dri.edu